createdAt,value
2016-07-28T00:00:01.825Z,4.89
2016-07-28T00:00:10.501Z,4.88
2016-07-28T00:00:19.223Z,4.89
2016-07-28T00:00:27.946Z,4.91
2016-07-28T00:00:36.614Z,4.92
2016-07-28T00:00:45.365Z,4.95
2016-07-28T00:00:54.109Z,4.94
2016-07-28T00:01:02.826Z,4.92
2016-07-28T00:01:11.587Z,4.89
2016-07-28T00:01:20.320Z,4.99
2016-07-28T00:01:29.043Z,4.98
2016-07-28T00:01:37.793Z,4.96
2016-07-28T00:01:46.518Z,4.98
2016-07-28T00:01:55.231Z,4.99
2016-07-28T00:02:03.960Z,4.96
2016-07-28T00:02:12.655Z,5.04
2016-07-28T00:02:21.355Z,4.98
2016-07-28T00:02:30.032Z,4.96
2016-07-28T00:02:38.735Z,4.99
2016-07-28T00:02:47.489Z,4.94
2016-07-28T00:02:56.171Z,4.95
2016-07-28T00:03:04.853Z,4.94
2016-07-28T00:03:13.574Z,4.92
2016-07-28T00:03:22.299Z,4.94
2016-07-28T00:03:30.991Z,4.96
2016-07-28T00:03:39.736Z,4.98
2016-07-28T00:03:48.476Z,4.95
2016-07-28T00:03:57.192Z,4.96
2016-07-28T00:04:05.877Z,4.95
2016-07-28T00:04:14.594Z,4.96
2016-07-28T00:04:23.290Z,4.98
2016-07-28T00:04:31.981Z,4.98
2016-07-28T00:04:40.692Z,4.96
2016-07-28T00:04:49.412Z,4.89
2016-07-28T00:04:58.155Z,4.98
2016-07-28T00:05:06.882Z,4.98
2016-07-28T00:05:15.580Z,4.89
2016-07-28T00:05:24.264Z,4.94
2016-07-28T00:05:32.955Z,4.91
2016-07-28T00:05:41.665Z,4.95
2016-07-28T00:05:50.378Z,4.95
2016-07-28T00:05:59.117Z,4.89
2016-07-28T00:06:07.800Z,4.92
2016-07-28T00:06:16.538Z,4.92
2016-07-28T00:06:25.259Z,4.92
2016-07-28T00:06:33.995Z,4.91
2016-07-28T00:06:42.681Z,4.94
2016-07-28T00:06:51.397Z,4.88
2016-07-28T00:07:00.105Z,4.91
2016-07-28T00:07:08.803Z,4.92
2016-07-28T00:07:17.545Z,4.84
2016-07-28T00:07:26.940Z,4.92
2016-07-28T00:07:35.644Z,4.92
2016-07-28T00:07:44.349Z,4.89
2016-07-28T00:07:53.100Z,4.95
2016-07-28T00:08:01.809Z,4.86
2016-07-28T00:08:10.530Z,4.79
2016-07-28T00:08:19.255Z,4.84
2016-07-28T00:08:28.005Z,4.83
2016-07-28T00:08:36.744Z,4.88
2016-07-28T00:08:45.475Z,4.89
2016-07-28T00:08:54.174Z,4.77
2016-07-28T00:09:02.895Z,4.83
2016-07-28T00:09:11.613Z,4.76
2016-07-28T00:09:20.367Z,4.77
2016-07-28T00:09:29.904Z,4.83
2016-07-28T00:09:39.305Z,4.75
2016-07-28T00:09:48.040Z,4.7
2016-07-28T00:09:56.745Z,4.69
2016-07-28T00:10:05.467Z,4.7
2016-07-28T00:10:14.170Z,4.65
2016-07-28T00:10:22.913Z,4.64
2016-07-28T00:10:31.634Z,4.73
2016-07-28T00:10:41.021Z,4.67
2016-07-28T00:10:49.728Z,4.62
2016-07-28T00:10:58.459Z,4.58
2016-07-28T00:11:07.148Z,4.69
2016-07-28T00:11:33.279Z,4.65
2016-07-28T00:11:41.969Z,4.57
2016-07-28T00:11:50.662Z,4.62
2016-07-28T00:12:00.068Z,4.59
2016-07-28T00:12:08.779Z,4.69
2016-07-28T00:12:17.531Z,4.62
2016-07-28T00:12:26.298Z,4.58
2016-07-28T00:12:34.978Z,4.58
2016-07-28T00:12:43.683Z,4.62
2016-07-28T00:12:52.378Z,4.57
2016-07-28T00:13:01.100Z,4.59
2016-07-28T00:13:09.804Z,4.59
2016-07-28T00:13:18.537Z,4.5
2016-07-28T00:13:27.245Z,4.51
2016-07-28T00:13:36.011Z,4.47
2016-07-28T00:13:44.725Z,4.51
2016-07-28T00:13:53.461Z,4.51
2016-07-28T00:14:02.150Z,4.47
2016-07-28T00:14:10.845Z,4.5
2016-07-28T00:14:19.579Z,4.46
2016-07-28T00:14:28.241Z,4.52
2016-07-28T00:14:36.923Z,4.52
2016-07-28T00:14:45.629Z,4.44
2016-07-28T00:14:55.023Z,4.51
2016-07-28T00:15:03.734Z,4.46
2016-07-28T00:15:12.490Z,4.52
2016-07-28T00:15:21.194Z,4.52
2016-07-28T00:15:29.899Z,4.52
2016-07-28T00:15:38.615Z,4.52
2016-07-28T00:15:47.317Z,4.46
2016-07-28T00:15:56.713Z,4.55
2016-07-28T00:16:05.444Z,4.44
2016-07-28T00:16:14.125Z,4.57
2016-07-28T00:16:22.826Z,4.5
2016-07-28T00:16:31.492Z,4.47
2016-07-28T00:16:40.200Z,4.44
2016-07-28T00:16:48.923Z,4.44
2016-07-28T00:16:57.640Z,4.43
2016-07-28T00:17:06.340Z,4.43
2016-07-28T00:17:15.019Z,4.37
2016-07-28T00:17:23.738Z,4.4
2016-07-28T00:17:32.445Z,4.37
2016-07-28T00:17:41.163Z,4.39
2016-07-28T00:17:49.890Z,4.43
2016-07-28T00:17:58.653Z,4.37
2016-07-28T00:18:07.369Z,4.4
2016-07-28T00:18:16.049Z,4.42
2016-07-28T00:18:24.760Z,4.4
2016-07-28T00:18:33.463Z,4.37
2016-07-28T00:18:42.181Z,4.4
2016-07-28T00:18:50.908Z,4.4
2016-07-28T00:18:59.615Z,4.39
2016-07-28T00:19:08.312Z,4.36
2016-07-28T00:19:17.040Z,4.36
2016-07-28T00:19:25.780Z,4.43
2016-07-28T00:19:34.503Z,4.4
2016-07-28T00:19:43.180Z,4.43
2016-07-28T00:19:51.869Z,4.32
2016-07-28T00:20:09.234Z,4.36
2016-07-28T00:20:17.977Z,4.42
2016-07-28T00:20:26.647Z,4.36
2016-07-28T00:20:35.375Z,4.33
2016-07-28T00:20:44.118Z,4.29
2016-07-28T00:20:52.832Z,4.33
2016-07-28T00:21:01.557Z,4.28
2016-07-28T00:21:10.267Z,4.22
2016-07-28T00:21:19.014Z,4.26
2016-07-28T00:21:27.757Z,4.25
2016-07-28T00:21:36.432Z,4.29
2016-07-28T00:21:45.162Z,4.32
2016-07-28T00:21:53.858Z,4.33
2016-07-28T00:22:02.547Z,4.32
2016-07-28T00:22:11.268Z,4.29
2016-07-28T00:22:20.003Z,4.26
2016-07-28T00:22:28.682Z,4.28
2016-07-28T00:22:37.370Z,4.19
2016-07-28T00:22:46.064Z,4.29
2016-07-28T00:22:54.750Z,4.19
2016-07-28T00:23:03.448Z,4.22
2016-07-28T00:23:12.170Z,4.24
2016-07-28T00:23:20.880Z,4.24
2016-07-28T00:23:29.561Z,4.32
2016-07-28T00:23:38.962Z,4.28
2016-07-28T00:23:47.628Z,4.22
2016-07-28T00:23:56.397Z,4.33
2016-07-28T00:24:05.113Z,4.24
2016-07-28T00:24:13.815Z,4.25
2016-07-28T00:24:22.540Z,4.26
2016-07-28T00:24:31.248Z,4.22
2016-07-28T00:24:39.990Z,4.34
2016-07-28T00:24:48.716Z,4.22
2016-07-28T00:24:57.393Z,4.25
2016-07-28T00:25:06.097Z,4.33
2016-07-28T00:25:14.772Z,4.21
2016-07-28T00:25:23.523Z,4.28
2016-07-28T00:25:32.266Z,4.26
2016-07-28T00:25:40.975Z,4.24
2016-07-28T00:25:49.657Z,4.19
2016-07-28T00:25:58.370Z,4.28
2016-07-28T00:26:07.095Z,4.28
2016-07-28T00:26:15.818Z,4.22
2016-07-28T00:26:33.257Z,4.26
2016-07-28T00:26:42.008Z,4.29
2016-07-28T00:26:50.697Z,4.32
2016-07-28T00:26:59.416Z,4.26
2016-07-28T00:27:08.140Z,4.24
2016-07-28T00:27:16.876Z,4.28
2016-07-28T00:27:25.586Z,4.21
2016-07-28T00:27:34.309Z,4.25
2016-07-28T00:27:43.008Z,4.28
2016-07-28T00:27:51.712Z,4.26
2016-07-28T00:28:00.434Z,4.26
2016-07-28T00:28:09.157Z,4.28
2016-07-28T00:28:17.874Z,4.26
2016-07-28T00:28:26.587Z,4.24
2016-07-28T00:28:35.305Z,4.26
2016-07-28T00:28:44.004Z,4.28
2016-07-28T00:28:52.728Z,4.34
2016-07-28T00:29:01.454Z,4.22
2016-07-28T00:29:10.197Z,4.22
2016-07-28T00:29:18.909Z,4.33
2016-07-28T00:29:27.618Z,4.32
2016-07-28T00:29:36.326Z,4.29
2016-07-28T00:29:45.054Z,4.24
2016-07-28T00:29:53.820Z,4.21
2016-07-28T00:30:02.559Z,4.26
2016-07-28T00:30:11.263Z,4.32
2016-07-28T00:30:19.990Z,4.24
2016-07-28T00:30:28.707Z,4.24
2016-07-28T00:30:37.449Z,4.26
2016-07-28T00:30:46.144Z,4.32
2016-07-28T00:30:54.873Z,4.29
2016-07-28T00:31:03.589Z,4.28
2016-07-28T00:31:12.313Z,4.29
2016-07-28T00:31:21.043Z,4.29
2016-07-28T00:31:29.764Z,4.24
2016-07-28T00:31:38.482Z,4.36
2016-07-28T00:31:47.207Z,4.37
2016-07-28T00:31:55.955Z,4.29
2016-07-28T00:32:04.673Z,4.29
2016-07-28T00:32:13.346Z,4.33
2016-07-28T00:32:22.068Z,4.34
2016-07-28T00:32:30.791Z,4.29
2016-07-28T00:32:39.463Z,4.34
2016-07-28T00:32:48.189Z,4.4
2016-07-28T00:32:56.942Z,4.34
2016-07-28T00:33:05.681Z,4.37
2016-07-28T00:33:14.410Z,4.36
2016-07-28T00:33:23.116Z,4.33
2016-07-28T00:33:31.843Z,4.29
2016-07-28T00:33:40.580Z,4.39
2016-07-28T00:33:49.269Z,4.4
2016-07-28T00:33:57.957Z,4.32
2016-07-28T00:34:06.667Z,4.34
2016-07-28T00:34:16.035Z,4.42
2016-07-28T00:34:24.758Z,4.39
2016-07-28T00:34:33.458Z,4.37
2016-07-28T00:34:42.174Z,4.39
2016-07-28T00:34:50.842Z,4.37
2016-07-28T00:34:59.590Z,4.4
2016-07-28T00:35:08.315Z,4.37
2016-07-28T00:35:17.007Z,4.34
2016-07-28T00:35:25.705Z,4.4
2016-07-28T00:35:34.386Z,4.39
2016-07-28T00:35:43.088Z,4.36
2016-07-28T00:35:51.786Z,4.36
2016-07-28T00:36:00.512Z,4.39
2016-07-28T00:36:09.182Z,4.37
2016-07-28T00:36:17.901Z,4.37
2016-07-28T00:36:26.668Z,4.37
2016-07-28T00:36:35.406Z,4.36
2016-07-28T00:36:44.131Z,4.36
2016-07-28T00:36:53.541Z,4.33
2016-07-28T00:37:02.258Z,4.32
2016-07-28T00:37:10.959Z,4.34
2016-07-28T00:37:19.636Z,4.33
2016-07-28T00:37:28.319Z,4.28
2016-07-28T00:37:37.057Z,4.29
2016-07-28T00:37:46.449Z,4.26
2016-07-28T00:37:55.175Z,4.32
2016-07-28T00:38:03.884Z,4.25
2016-07-28T00:38:12.576Z,4.26
2016-07-28T00:38:21.297Z,4.26
2016-07-28T00:38:29.998Z,4.34
2016-07-28T00:38:38.719Z,4.24
2016-07-28T00:38:47.432Z,4.22
2016-07-28T00:38:56.143Z,4.33
2016-07-28T00:39:04.885Z,4.29
2016-07-28T00:39:13.582Z,4.37
2016-07-28T00:39:22.991Z,4.34
2016-07-28T00:39:31.703Z,4.29
2016-07-28T00:39:41.103Z,4.37
2016-07-28T00:39:49.808Z,4.33
2016-07-28T00:39:58.572Z,4.36
2016-07-28T00:40:07.268Z,4.39
2016-07-28T00:40:15.957Z,4.34
2016-07-28T00:40:24.638Z,4.43
2016-07-28T00:40:33.339Z,4.39
2016-07-28T00:40:42.029Z,4.37
2016-07-28T00:40:50.766Z,4.33
2016-07-28T00:40:59.454Z,4.43
2016-07-28T00:41:08.133Z,4.39
2016-07-28T00:41:16.879Z,4.34
2016-07-28T00:41:34.363Z,4.42
2016-07-28T00:41:43.097Z,4.36
2016-07-28T00:41:51.843Z,4.39
2016-07-28T00:42:00.595Z,4.42
2016-07-28T00:42:09.994Z,4.37
2016-07-28T00:42:18.672Z,4.32
2016-07-28T00:42:28.061Z,4.33
2016-07-28T00:42:36.783Z,4.39
2016-07-28T00:42:45.487Z,4.42
2016-07-28T00:42:54.215Z,4.42
2016-07-28T00:43:02.925Z,4.42
2016-07-28T00:43:11.649Z,4.36
2016-07-28T00:43:20.381Z,4.37
2016-07-28T00:43:29.069Z,4.36
2016-07-28T00:43:37.787Z,4.36
2016-07-28T00:43:46.487Z,4.37
2016-07-28T00:43:55.174Z,4.36
2016-07-28T00:44:03.902Z,4.42
2016-07-28T00:44:12.610Z,4.37
2016-07-28T00:44:21.356Z,4.36
2016-07-28T00:44:30.090Z,4.39
2016-07-28T00:44:38.814Z,4.4
2016-07-28T00:44:47.506Z,4.39
2016-07-28T00:44:56.221Z,4.4
2016-07-28T00:45:04.938Z,4.34
2016-07-28T00:45:13.668Z,4.37
2016-07-28T00:45:22.418Z,4.39
2016-07-28T00:45:31.819Z,4.34
2016-07-28T00:45:40.547Z,4.36
2016-07-28T00:45:49.264Z,4.37
2016-07-28T00:45:57.985Z,4.33
2016-07-28T00:46:07.379Z,4.42
2016-07-28T00:46:16.060Z,4.36
2016-07-28T00:46:24.818Z,4.36
2016-07-28T00:46:33.546Z,4.4
2016-07-28T00:46:42.242Z,4.4
2016-07-28T00:46:50.933Z,4.39
2016-07-28T00:46:59.619Z,4.37
2016-07-28T00:47:08.344Z,4.32
2016-07-28T00:47:17.069Z,4.24
2016-07-28T00:47:25.759Z,4.33
2016-07-28T00:47:34.436Z,4.26
2016-07-28T00:47:43.125Z,4.15
2016-07-28T00:47:51.828Z,4.15
2016-07-28T00:48:00.555Z,4.18
2016-07-28T00:48:09.266Z,4.18
2016-07-28T00:48:18.003Z,4.18
2016-07-28T00:48:26.690Z,4.14
2016-07-28T00:48:35.418Z,4.1
2016-07-28T00:48:44.147Z,4.12
2016-07-28T00:48:52.890Z,4.16
2016-07-28T00:49:01.643Z,4.18
2016-07-28T00:49:10.348Z,4.21
2016-07-28T00:49:19.053Z,4.21
2016-07-28T00:49:27.779Z,4.24
2016-07-28T00:49:36.492Z,4.26
2016-07-28T00:49:45.189Z,4.24
2016-07-28T00:49:53.922Z,4.28
2016-07-28T00:50:02.647Z,4.21
2016-07-28T00:50:11.390Z,4.32
2016-07-28T00:50:20.070Z,4.34
2016-07-28T00:50:28.804Z,4.4
2016-07-28T00:50:37.525Z,4.39
2016-07-28T00:50:46.223Z,4.36
2016-07-28T00:50:54.927Z,4.39
2016-07-28T00:51:03.636Z,4.43
2016-07-28T00:51:12.331Z,4.37
2016-07-28T00:51:21.038Z,4.4
2016-07-28T00:51:29.745Z,4.51
2016-07-28T00:51:38.423Z,4.52
2016-07-28T00:51:47.163Z,4.46
2016-07-28T00:51:55.879Z,4.47
2016-07-28T00:52:04.562Z,4.46
2016-07-28T00:52:13.326Z,4.46
2016-07-28T00:52:22.020Z,4.51
2016-07-28T00:52:30.747Z,4.54
2016-07-28T00:52:39.404Z,4.64
2016-07-28T00:52:48.100Z,4.64
2016-07-28T00:52:56.761Z,4.62
2016-07-28T00:53:05.436Z,4.64
2016-07-28T00:53:14.115Z,4.58
2016-07-28T00:53:22.819Z,4.58
2016-07-28T00:53:31.519Z,4.64
2016-07-28T00:53:40.179Z,4.61
2016-07-28T00:53:48.882Z,4.65
2016-07-28T00:53:57.567Z,4.7
2016-07-28T00:54:06.261Z,4.64
2016-07-28T00:54:14.960Z,4.58
2016-07-28T00:54:23.692Z,4.62
2016-07-28T00:54:32.391Z,4.58
2016-07-28T00:54:41.130Z,4.61
2016-07-28T00:54:49.854Z,4.76
2016-07-28T00:54:58.559Z,4.7
2016-07-28T00:55:07.266Z,4.76
2016-07-28T00:55:15.988Z,4.73
2016-07-28T00:55:24.684Z,4.69
2016-07-28T00:55:33.392Z,4.72
2016-07-28T00:55:42.110Z,4.69
2016-07-28T00:55:50.827Z,4.7
2016-07-28T00:55:59.550Z,4.77
2016-07-28T00:56:08.252Z,4.75
2016-07-28T00:56:16.928Z,4.7
2016-07-28T00:56:34.324Z,4.83
2016-07-28T00:56:43.030Z,4.72
2016-07-28T00:56:51.734Z,4.83
2016-07-28T00:57:00.465Z,4.79
2016-07-28T00:57:09.175Z,4.72
2016-07-28T00:57:17.859Z,4.75
2016-07-28T00:57:26.602Z,4.8
2016-07-28T00:57:35.279Z,4.83
2016-07-28T00:57:44.010Z,4.84
2016-07-28T00:57:52.730Z,4.95
2016-07-28T00:58:01.468Z,4.86
2016-07-28T00:58:10.206Z,4.92
2016-07-28T00:58:18.866Z,4.91
2016-07-28T00:58:27.602Z,4.92
2016-07-28T00:58:36.266Z,4.98
2016-07-28T00:58:44.967Z,4.95
2016-07-28T00:58:53.627Z,5.01
2016-07-28T00:59:02.329Z,4.99
2016-07-28T00:59:11.016Z,4.96
2016-07-28T00:59:19.739Z,4.98
2016-07-28T00:59:28.435Z,5.01
2016-07-28T00:59:37.184Z,4.98
2016-07-28T00:59:45.919Z,4.99
2016-07-28T00:59:54.630Z,4.96
2016-07-28T01:00:03.376Z,4.96
2016-07-28T01:00:12.113Z,4.98
2016-07-28T01:00:20.791Z,4.98
2016-07-28T01:00:29.479Z,5.02
2016-07-28T01:00:38.150Z,5.01
2016-07-28T01:00:46.841Z,5.05
2016-07-28T01:00:55.566Z,4.96
2016-07-28T01:01:04.280Z,5.01
2016-07-28T01:01:12.976Z,4.98
2016-07-28T01:01:21.662Z,5.02
2016-07-28T01:01:30.388Z,5.04
2016-07-28T01:01:39.077Z,5.12
2016-07-28T01:01:47.788Z,5.17
2016-07-28T01:01:56.490Z,5.1
2016-07-28T01:02:05.220Z,5.12
2016-07-28T01:02:13.954Z,5.1
2016-07-28T01:02:22.654Z,5.12
2016-07-28T01:02:31.354Z,5.1
2016-07-28T01:02:40.038Z,5.13
2016-07-28T01:02:48.731Z,5.09
2016-07-28T01:02:57.406Z,5.09
2016-07-28T01:03:06.096Z,5.09
2016-07-28T01:03:14.798Z,5.09
2016-07-28T01:03:23.508Z,5.04
2016-07-28T01:03:32.890Z,5.07
2016-07-28T01:03:41.608Z,5.02
2016-07-28T01:03:50.345Z,4.98
2016-07-28T01:03:59.051Z,4.99
2016-07-28T01:04:07.743Z,5.05
2016-07-28T01:04:16.441Z,5.01
2016-07-28T01:04:25.130Z,5.05
2016-07-28T01:04:33.895Z,5.02
2016-07-28T01:04:42.585Z,5.1
2016-07-28T01:04:51.280Z,4.99
2016-07-28T01:04:59.937Z,5.01
2016-07-28T01:05:08.653Z,4.98
2016-07-28T01:05:17.528Z,5.02
2016-07-28T01:05:26.243Z,5.01
2016-07-28T01:05:34.969Z,5.09
2016-07-28T01:05:43.711Z,4.98
2016-07-28T01:05:52.454Z,5.05
2016-07-28T01:06:01.175Z,5.09
2016-07-28T01:06:09.860Z,5.01
2016-07-28T01:06:18.591Z,5.02
2016-07-28T01:06:27.297Z,5.02
2016-07-28T01:06:36.028Z,5.01
2016-07-28T01:06:44.731Z,5.02
2016-07-28T01:06:53.446Z,4.99
2016-07-28T01:07:02.153Z,5.02
2016-07-28T01:07:10.870Z,5.05
2016-07-28T01:07:19.572Z,5.04
2016-07-28T01:07:28.289Z,5.05
2016-07-28T01:07:36.998Z,5.05
2016-07-28T01:07:45.753Z,5.05
2016-07-28T01:07:54.477Z,4.99
2016-07-28T01:08:03.161Z,4.98
2016-07-28T01:08:11.854Z,5.05
2016-07-28T01:08:20.556Z,5.05
2016-07-28T01:08:29.272Z,5.04
2016-07-28T01:08:38.005Z,4.99
2016-07-28T01:08:46.689Z,5.05
2016-07-28T01:08:55.414Z,5.01
2016-07-28T01:09:04.159Z,5.04
2016-07-28T01:09:12.894Z,5.09
2016-07-28T01:09:21.625Z,5.1
2016-07-28T01:09:31.055Z,5.1
2016-07-28T01:09:39.760Z,4.96
2016-07-28T01:09:48.468Z,5.1
2016-07-28T01:09:57.171Z,5.02
2016-07-28T01:10:05.901Z,5.04
2016-07-28T01:10:14.661Z,5.12
2016-07-28T01:10:23.372Z,5.1
2016-07-28T01:10:32.025Z,5.02
2016-07-28T01:10:40.725Z,4.96
2016-07-28T01:10:49.433Z,5.02
2016-07-28T01:10:58.132Z,4.96
2016-07-28T01:11:06.840Z,4.96
2016-07-28T01:11:15.586Z,4.99
2016-07-28T01:11:33.004Z,4.96
2016-07-28T01:11:41.724Z,5.02
2016-07-28T01:11:50.439Z,5.04
2016-07-28T01:11:59.115Z,5.04
2016-07-28T01:12:07.798Z,5.01
2016-07-28T01:12:16.535Z,5.1
2016-07-28T01:12:25.239Z,5.01
2016-07-28T01:12:33.951Z,4.99
2016-07-28T01:12:42.647Z,5.07
2016-07-28T01:12:51.370Z,5.07
2016-07-28T01:13:00.064Z,5.05
2016-07-28T01:13:08.817Z,5.01
2016-07-28T01:13:17.515Z,5.09
2016-07-28T01:13:26.253Z,5.02
2016-07-28T01:13:34.978Z,4.99
2016-07-28T01:13:43.677Z,5.01
2016-07-28T01:13:52.377Z,4.99
2016-07-28T01:14:01.094Z,5.02
2016-07-28T01:14:09.787Z,5.1
2016-07-28T01:14:19.156Z,5.07
2016-07-28T01:14:27.857Z,5.01
2016-07-28T01:14:36.558Z,5.07
2016-07-28T01:14:45.259Z,5.05
2016-07-28T01:14:53.962Z,5.04
2016-07-28T01:15:02.662Z,5.02
2016-07-28T01:15:11.336Z,4.98
2016-07-28T01:15:20.017Z,5.01
2016-07-28T01:15:28.740Z,4.98
2016-07-28T01:15:37.439Z,5.04
2016-07-28T01:15:46.146Z,5.02
2016-07-28T01:15:54.866Z,5.02
2016-07-28T01:16:03.584Z,4.99
2016-07-28T01:16:12.946Z,4.98
2016-07-28T01:16:21.668Z,4.96
2016-07-28T01:16:30.424Z,4.99
2016-07-28T01:16:39.135Z,5.01
2016-07-28T01:16:47.830Z,4.99
2016-07-28T01:16:56.532Z,4.96
2016-07-28T01:17:05.250Z,4.95
2016-07-28T01:17:13.987Z,4.98
2016-07-28T01:17:22.738Z,4.95
2016-07-28T01:17:31.449Z,4.99
2016-07-28T01:17:40.163Z,5.01
2016-07-28T01:17:48.844Z,4.98
2016-07-28T01:17:57.558Z,4.91
2016-07-28T01:18:06.260Z,4.88
2016-07-28T01:18:14.942Z,4.89
2016-07-28T01:18:23.611Z,4.84
2016-07-28T01:18:32.296Z,4.83
2016-07-28T01:18:40.988Z,4.76
2016-07-28T01:18:49.713Z,4.8
2016-07-28T01:18:58.398Z,4.77
2016-07-28T01:19:07.095Z,4.72
2016-07-28T01:19:15.799Z,4.8
2016-07-28T01:19:24.523Z,4.7
2016-07-28T01:19:33.245Z,4.73
2016-07-28T01:19:41.955Z,4.72
2016-07-28T01:19:50.678Z,4.67
2016-07-28T01:19:59.411Z,4.64
2016-07-28T01:20:08.117Z,4.7
2016-07-28T01:20:16.836Z,4.65
2016-07-28T01:20:25.526Z,4.62
2016-07-28T01:20:34.232Z,4.61
2016-07-28T01:20:42.957Z,4.67
2016-07-28T01:20:51.634Z,4.62
2016-07-28T01:21:00.345Z,4.73
2016-07-28T01:21:09.052Z,4.64
2016-07-28T01:21:17.754Z,4.62
2016-07-28T01:21:26.463Z,4.61
2016-07-28T01:21:35.165Z,4.7
2016-07-28T01:21:43.877Z,4.65
2016-07-28T01:21:52.578Z,4.67
2016-07-28T01:22:01.288Z,4.73
2016-07-28T01:22:09.991Z,4.67
2016-07-28T01:22:18.673Z,4.76
2016-07-28T01:22:28.097Z,4.69
2016-07-28T01:22:36.803Z,4.8
2016-07-28T01:22:45.517Z,4.73
2016-07-28T01:22:54.219Z,4.8
2016-07-28T01:23:02.929Z,4.79
2016-07-28T01:23:11.630Z,4.72
2016-07-28T01:23:20.326Z,4.73
2016-07-28T01:23:29.036Z,4.76
2016-07-28T01:23:37.747Z,4.84
2016-07-28T01:23:46.463Z,4.73
2016-07-28T01:23:55.187Z,4.73
2016-07-28T01:24:03.907Z,4.77
2016-07-28T01:24:12.620Z,4.75
2016-07-28T01:24:21.302Z,4.72
2016-07-28T01:24:30.002Z,4.72
2016-07-28T01:24:39.363Z,4.79
2016-07-28T01:24:48.071Z,4.75
2016-07-28T01:24:56.796Z,4.76
2016-07-28T01:25:05.504Z,4.8
2016-07-28T01:25:14.201Z,4.77
2016-07-28T01:25:22.877Z,4.79
2016-07-28T01:25:31.610Z,4.8
2016-07-28T01:25:40.317Z,4.83
2016-07-28T01:25:49.031Z,4.75
2016-07-28T01:25:57.739Z,4.75
2016-07-28T01:26:06.464Z,4.83
2016-07-28T01:26:15.188Z,4.88
2016-07-28T01:26:23.890Z,4.8
2016-07-28T01:26:41.261Z,4.83
2016-07-28T01:26:49.974Z,4.79
2016-07-28T01:26:58.658Z,4.8
2016-07-28T01:27:07.388Z,4.83
2016-07-28T01:27:16.103Z,4.8
2016-07-28T01:27:24.786Z,4.84
2016-07-28T01:27:33.503Z,4.79
2016-07-28T01:27:42.239Z,4.75
2016-07-28T01:27:50.927Z,4.75
2016-07-28T01:27:59.661Z,4.79
2016-07-28T01:28:08.372Z,4.75
2016-07-28T01:28:17.103Z,4.73
2016-07-28T01:28:26.499Z,4.76
2016-07-28T01:28:35.188Z,4.79
2016-07-28T01:28:43.925Z,4.79
2016-07-28T01:28:52.668Z,4.79
2016-07-28T01:29:01.374Z,4.72
2016-07-28T01:29:10.098Z,4.8
2016-07-28T01:29:18.815Z,4.7
2016-07-28T01:29:28.217Z,4.69
2016-07-28T01:29:36.936Z,4.7
2016-07-28T01:29:45.620Z,4.73
2016-07-28T01:29:54.314Z,4.72
2016-07-28T01:30:02.982Z,4.7
2016-07-28T01:30:11.684Z,4.7
2016-07-28T01:30:20.363Z,4.69
2016-07-28T01:30:29.049Z,4.75
2016-07-28T01:30:37.765Z,4.64
2016-07-28T01:30:46.466Z,4.58
2016-07-28T01:30:55.200Z,4.7
2016-07-28T01:31:03.875Z,4.67
2016-07-28T01:31:13.218Z,4.61
2016-07-28T01:31:21.953Z,4.75
2016-07-28T01:31:30.641Z,4.62
2016-07-28T01:31:39.347Z,4.64
2016-07-28T01:31:48.088Z,4.69
2016-07-28T01:31:56.834Z,4.69
2016-07-28T01:32:06.182Z,4.59
2016-07-28T01:32:14.883Z,4.62
2016-07-28T01:32:23.601Z,4.58
2016-07-28T01:32:32.328Z,4.61
2016-07-28T01:32:41.055Z,4.72
2016-07-28T01:32:49.771Z,4.64
2016-07-28T01:32:58.459Z,4.75
2016-07-28T01:33:07.206Z,4.64
2016-07-28T01:33:15.886Z,4.64
2016-07-28T01:33:24.652Z,4.72
2016-07-28T01:33:33.351Z,4.64
2016-07-28T01:33:42.077Z,4.64
2016-07-28T01:33:50.758Z,4.64
2016-07-28T01:33:59.515Z,4.62
2016-07-28T01:34:08.223Z,4.64
2016-07-28T01:34:16.948Z,4.64
2016-07-28T01:34:25.676Z,4.64
2016-07-28T01:34:34.365Z,4.72
2016-07-28T01:34:43.045Z,4.65
2016-07-28T01:34:51.791Z,4.67
2016-07-28T01:35:00.533Z,4.65
2016-07-28T01:35:09.202Z,4.65
2016-07-28T01:35:17.874Z,4.7
2016-07-28T01:35:27.288Z,4.76
2016-07-28T01:35:36.003Z,4.69
2016-07-28T01:35:44.723Z,4.76
2016-07-28T01:35:53.434Z,4.75
2016-07-28T01:36:02.130Z,4.76
2016-07-28T01:36:10.861Z,4.75
2016-07-28T01:36:19.593Z,4.72
2016-07-28T01:36:28.297Z,4.59
2016-07-28T01:36:36.966Z,4.7
2016-07-28T01:36:45.643Z,4.62
2016-07-28T01:36:54.327Z,4.69
2016-07-28T01:37:03.028Z,4.62
2016-07-28T01:37:11.732Z,4.72
2016-07-28T01:37:20.434Z,4.73
2016-07-28T01:37:29.136Z,4.65
2016-07-28T01:37:37.825Z,4.73
2016-07-28T01:37:46.543Z,4.69
2016-07-28T01:37:55.286Z,4.69
2016-07-28T01:38:03.996Z,4.73
2016-07-28T01:38:12.672Z,4.7
2016-07-28T01:38:21.412Z,4.69
2016-07-28T01:38:30.150Z,4.73
2016-07-28T01:38:38.827Z,4.75
2016-07-28T01:38:47.507Z,4.77
2016-07-28T01:38:56.254Z,4.73
2016-07-28T01:39:04.970Z,4.7
2016-07-28T01:39:13.658Z,4.69
2016-07-28T01:39:23.031Z,4.64
2016-07-28T01:39:31.738Z,4.65
2016-07-28T01:39:40.463Z,4.64
2016-07-28T01:39:49.154Z,4.62
2016-07-28T01:39:57.857Z,4.72
2016-07-28T01:40:06.583Z,4.76
2016-07-28T01:40:15.304Z,4.75
2016-07-28T01:40:24.020Z,4.67
2016-07-28T01:40:33.438Z,4.72
2016-07-28T01:40:42.161Z,4.76
2016-07-28T01:40:50.859Z,4.73
2016-07-28T01:40:59.580Z,4.69
2016-07-28T01:41:08.284Z,4.67
2016-07-28T01:41:17.655Z,4.76
2016-07-28T01:41:35.057Z,4.73
2016-07-28T01:41:43.757Z,4.69
2016-07-28T01:41:52.463Z,4.73
2016-07-28T01:42:01.201Z,4.67
2016-07-28T01:42:09.882Z,4.67
2016-07-28T01:42:18.630Z,4.72
2016-07-28T01:42:27.345Z,4.77
2016-07-28T01:42:36.052Z,4.73
2016-07-28T01:42:44.740Z,4.69
2016-07-28T01:42:53.449Z,4.73
2016-07-28T01:43:02.171Z,4.79
2016-07-28T01:43:10.913Z,4.73
2016-07-28T01:43:19.631Z,4.67
2016-07-28T01:43:28.383Z,4.73
2016-07-28T01:43:37.066Z,4.83
2016-07-28T01:43:45.799Z,4.7
2016-07-28T01:43:54.535Z,4.7
2016-07-28T01:44:03.238Z,4.79
2016-07-28T01:44:11.944Z,4.72
2016-07-28T01:44:20.661Z,4.73
2016-07-28T01:44:29.351Z,4.73
2016-07-28T01:44:38.093Z,4.83
2016-07-28T01:44:46.865Z,4.72
2016-07-28T01:44:55.579Z,4.75
2016-07-28T01:45:04.301Z,4.76
2016-07-28T01:45:13.003Z,4.8
2016-07-28T01:45:21.699Z,4.79
2016-07-28T01:45:30.433Z,4.73
2016-07-28T01:45:39.168Z,4.79
2016-07-28T01:45:47.918Z,4.73
2016-07-28T01:45:56.657Z,4.72
2016-07-28T01:46:05.376Z,4.79
2016-07-28T01:46:14.104Z,4.75
2016-07-28T01:46:22.821Z,4.77
2016-07-28T01:46:31.525Z,4.76
2016-07-28T01:46:40.203Z,4.77
2016-07-28T01:46:48.908Z,4.75
2016-07-28T01:46:58.278Z,4.8
2016-07-28T01:47:06.945Z,4.83
2016-07-28T01:47:15.650Z,4.8
2016-07-28T01:47:24.369Z,4.8
2016-07-28T01:47:33.099Z,4.84
2016-07-28T01:47:41.818Z,4.79
2016-07-28T01:47:50.476Z,4.86
2016-07-28T01:47:59.164Z,4.84
2016-07-28T01:48:07.905Z,4.84
2016-07-28T01:48:16.645Z,4.88
2016-07-28T01:48:25.390Z,4.89
2016-07-28T01:48:34.093Z,4.89
2016-07-28T01:48:42.807Z,4.92
2016-07-28T01:48:51.509Z,4.92
2016-07-28T01:49:00.197Z,4.92
2016-07-28T01:49:08.947Z,4.92
2016-07-28T01:49:17.685Z,4.94
2016-07-28T01:49:26.414Z,4.95
2016-07-28T01:49:35.117Z,4.94
2016-07-28T01:49:43.852Z,4.92
2016-07-28T01:49:53.213Z,4.95
2016-07-28T01:50:01.951Z,4.96
2016-07-28T01:50:10.704Z,4.96
2016-07-28T01:50:19.400Z,4.96
2016-07-28T01:50:28.125Z,5.01
2016-07-28T01:50:37.512Z,5.01
2016-07-28T01:50:46.230Z,4.98
2016-07-28T01:50:54.942Z,5.02
2016-07-28T01:51:03.684Z,5.01
2016-07-28T01:51:12.404Z,4.96
2016-07-28T01:51:21.107Z,5.02
2016-07-28T01:51:29.848Z,5.04
2016-07-28T01:51:38.591Z,5.05
2016-07-28T01:51:47.292Z,4.95
2016-07-28T01:51:56.678Z,5.04
2016-07-28T01:52:05.381Z,5.02
2016-07-28T01:52:14.078Z,5.07
2016-07-28T01:52:22.813Z,5.01
2016-07-28T01:52:31.508Z,4.99
2016-07-28T01:52:40.221Z,5.04
2016-07-28T01:52:48.931Z,5.04
2016-07-28T01:52:57.635Z,5.01
2016-07-28T01:53:06.336Z,5.05
2016-07-28T01:53:15.091Z,5.05
2016-07-28T01:53:23.790Z,4.94
2016-07-28T01:53:32.475Z,4.94
2016-07-28T01:53:41.173Z,5.09
2016-07-28T01:53:49.879Z,4.96
2016-07-28T01:53:58.615Z,5.05
2016-07-28T01:54:07.365Z,4.94
2016-07-28T01:54:16.087Z,4.96
2016-07-28T01:54:24.769Z,4.96
2016-07-28T01:54:33.469Z,5.04
2016-07-28T01:54:42.196Z,5.04
2016-07-28T01:54:50.896Z,4.98
2016-07-28T01:54:59.576Z,5.02
2016-07-28T01:55:08.301Z,5.09
2016-07-28T01:55:17.039Z,5.01
2016-07-28T01:55:25.739Z,5.01
2016-07-28T01:55:34.467Z,5.04
2016-07-28T01:55:43.145Z,4.99
2016-07-28T01:55:51.855Z,5.02
2016-07-28T01:56:01.280Z,4.99
2016-07-28T01:56:09.998Z,5.04
2016-07-28T01:56:18.705Z,4.98
2016-07-28T01:56:36.145Z,5.05
2016-07-28T01:56:44.879Z,4.98
2016-07-28T01:56:53.582Z,5.02
2016-07-28T01:57:02.311Z,4.96
2016-07-28T01:57:10.979Z,5.09
2016-07-28T01:57:19.703Z,5.02
2016-07-28T01:57:28.412Z,5.1
2016-07-28T01:57:37.140Z,5.09
2016-07-28T01:57:45.859Z,5.1
2016-07-28T01:57:55.256Z,5.07
2016-07-28T01:58:03.993Z,5.02